マンチェスター の空港の天気 - METARとTAF

マンチェスター空港 ( EGCC / MAN ) - イギリス マンチェスター
飛行場実況気象(Metar)
観測時間11/24 17:50 GMT (11/24 17:50 UTC)
風向・風速南南東 4m/s
視程10km以上
天気現象
全天の4割程度の雲 雲底高度 1490m
気温11℃
湿度82%
気圧1007hPa
METAREGCC 241750Z AUTO 16008KT 110V210 9999 SCT049 11/08 Q1007
過去の天気等 Google飛行場航空写真 Wunderground天気予報

過去48時間のMETAR

飛行場予報(TAF)
発表時間: 11/24 16:55 GMT (11/24 16:55 UTC)
予報対象時間: 24日18時 GMT ~ 26日0時 GMT
風向・風速南 5m/s
視程10km以上
全天の4割程度の雲 雲底高度 910m
24日18時 GMT ~ 24日23時 GMT に 確率 30% で一時的に
全天の8割程度の雲 雲底高度 430m
24日23時 GMT ~ 25日2時 GMT に徐々に
風向・風速西北西 3m/s
24日23時 GMT ~ 25日7時 GMT に一時的に
視程8000m
天気現象弱い雨
全天の8割程度の雲 雲底高度 240m
25日0時 GMT ~ 25日6時 GMT に 確率 30% で一時的に
天気現象
全天の8割程度の雲 雲底高度 120m
25日7時 GMT ~ 25日12時 GMT に 確率 30% で一時的に
視程8000m
天気現象弱い雨
全天の8割程度の雲 雲底高度 370m
25日18時 GMT ~ 25日24時 GMT に一時的に
視程4000m
天気現象もや
25日21時 GMT ~ 25日24時 GMT に 確率 30% で一時的に
視程500m
天気現象
全天を覆う雲 雲底高度 0m
TAF EGCC 241655Z 2418/2524 18010KT 9999 SCT030
PROB30 TEMPO 2418/2423 BKN014
BECMG 2423/2502 30006KT
TEMPO 2423/2507 8000 -RA BKN008
PROB30 TEMPO 2500/2506 RA BKN004
PROB30 TEMPO 2507/2512 8000 -RA BKN012
TEMPO 2518/2524 4000 BR
PROB30 TEMPO 2521/2524 0500 FG OVC000